Skyway, Washington
Current Conditions -  °F | °C
As of 12:53 AM on Friday 19 Dec 2014 (Local Time) from KRNT Reporting Station
Light Rain Light Rain  
Wind Chill: 47°   Ceiling: 5000
Heat Index: 49°   Visibility: 8mi
Dew Point: 47°   Wind: 5mph
Humidity: 93%   Direction: 140°SE
Pressure: 29.81"   Gusts: NA
Location:  47.4965°N, 122.251°W
Report Text: KRNT 190853Z AUTO 14004KT 8SM -RA OVC050 09/08 A2981 RMK AO2 SLP098 P0003 60021 T00940083 51023
Loading
Personal Weather Stations






























Interactive Weather Map New forecast layout! Learn more

10-Day Weather Forecast

Advertisements
Track Severe Weather on mobile